createdAt,value
2017-02-08T00:00:28.931Z,1012.6
2017-02-08T00:01:34.050Z,1012.6
2017-02-08T00:02:39.174Z,1012.62
2017-02-08T00:03:45.260Z,1012.65
2017-02-08T00:04:51.378Z,1012.62
2017-02-08T00:05:55.490Z,1012.61
2017-02-08T00:07:01.595Z,1012.63
2017-02-08T00:08:05.723Z,1012.66
2017-02-08T00:09:10.905Z,1012.68
2017-02-08T00:10:16.025Z,1012.71
2017-02-08T00:11:20.153Z,1012.73
2017-02-08T00:12:26.272Z,1012.71
2017-02-08T00:13:30.400Z,1012.7
2017-02-08T00:14:36.499Z,1012.77
2017-02-08T00:15:42.580Z,1012.72
2017-02-08T00:16:48.692Z,1012.71
2017-02-08T00:17:54.785Z,1012.66
2017-02-08T00:19:00.879Z,1012.73
2017-02-08T00:20:06.972Z,1012.75
2017-02-08T00:21:13.131Z,1012.73
2017-02-08T00:22:19.222Z,1012.71
2017-02-08T00:23:25.305Z,1012.68
2017-02-08T00:24:31.394Z,1012.67
2017-02-08T00:25:37.482Z,1012.71
2017-02-08T00:26:43.577Z,1012.67
2017-02-08T00:27:49.659Z,1012.79
2017-02-08T00:28:55.757Z,1012.75
2017-02-08T00:29:57.946Z,1012.77
2017-02-08T00:31:03.072Z,1012.86
2017-02-08T00:32:09.156Z,1012.77
2017-02-08T00:33:13.312Z,1012.88
2017-02-08T00:34:18.447Z,1012.83
2017-02-08T00:35:23.560Z,1012.86
2017-02-08T00:36:29.632Z,1012.86
2017-02-08T00:37:33.801Z,1012.8
2017-02-08T00:38:38.950Z,1012.86
2017-02-08T00:39:44.055Z,1012.86
2017-02-08T00:40:50.152Z,1012.81
2017-02-08T00:41:55.289Z,1012.89
2017-02-08T00:43:01.374Z,1012.92
2017-02-08T00:44:06.487Z,1012.82
2017-02-08T00:45:11.623Z,1012.86
2017-02-08T00:46:16.734Z,1012.87
2017-02-08T00:47:22.850Z,1012.88
2017-02-08T00:48:26.003Z,1012.84
2017-02-08T00:49:32.092Z,1012.89
2017-02-08T00:50:36.272Z,1012.85
2017-02-08T00:51:41.390Z,1012.88
2017-02-08T00:52:45.555Z,1012.88
2017-02-08T00:53:51.642Z,1012.89
2017-02-08T00:54:57.761Z,1012.95
2017-02-08T00:56:00.930Z,1012.9
2017-02-08T00:57:07.016Z,1012.91
2017-02-08T00:58:12.130Z,1012.91
2017-02-08T00:59:18.217Z,1012.91
2017-02-08T01:00:22.363Z,1012.94
2017-02-08T01:01:27.526Z,1012.93
2017-02-08T01:02:33.585Z,1012.94
2017-02-08T01:03:38.704Z,1012.97
2017-02-08T01:04:43.841Z,1012.89
2017-02-08T01:05:49.985Z,1012.93
2017-02-08T01:06:56.081Z,1012.88
2017-02-08T01:08:00.214Z,1012.96
2017-02-08T01:09:06.301Z,1012.92
2017-02-08T01:10:10.425Z,1012.92
2017-02-08T01:11:16.515Z,1012.94
2017-02-08T01:12:21.624Z,1012.92
2017-02-08T01:13:27.720Z,1012.9
2017-02-08T01:14:33.808Z,1012.91
2017-02-08T01:15:39.902Z,1012.93
2017-02-08T01:16:45.061Z,1012.98
2017-02-08T01:17:50.260Z,1012.95
2017-02-08T01:18:55.386Z,1012.97
2017-02-08T01:20:01.468Z,1012.97
2017-02-08T01:21:07.561Z,1012.99
2017-02-08T01:22:11.719Z,1013.02
2017-02-08T01:23:15.862Z,1012.96
2017-02-08T01:24:20.019Z,1013.01
2017-02-08T01:25:26.226Z,1012.99
2017-02-08T01:26:32.305Z,1013
2017-02-08T01:27:38.394Z,1013.02
2017-02-08T01:28:44.485Z,1012.98
2017-02-08T01:29:49.623Z,1013.04
2017-02-08T01:30:53.759Z,1013.05
2017-02-08T01:31:57.908Z,1013.06
2017-02-08T01:33:03.999Z,1013.02
2017-02-08T01:34:08.149Z,1013.04
2017-02-08T01:35:12.299Z,1013.06
2017-02-08T01:36:17.420Z,1013.01
2017-02-08T01:37:23.509Z,1013.05
2017-02-08T01:38:28.629Z,1013.04
2017-02-08T01:39:33.819Z,1013.05
2017-02-08T01:40:38.943Z,1013.06
2017-02-08T01:41:43.095Z,1013.09
2017-02-08T01:42:48.222Z,1013.07
2017-02-08T01:43:53.338Z,1013.06
2017-02-08T01:44:58.450Z,1013.1
2017-02-08T01:46:02.579Z,1013.11
2017-02-08T01:47:08.664Z,1013.09
2017-02-08T01:48:13.765Z,1013.06
2017-02-08T01:49:18.908Z,1013.12
2017-02-08T01:50:24.027Z,1013.08
2017-02-08T01:51:28.183Z,1013.08
2017-02-08T01:52:34.323Z,1013.06
2017-02-08T01:53:40.430Z,1013.06
2017-02-08T01:54:45.542Z,1013.08
2017-02-08T01:55:50.667Z,1013.1
2017-02-08T01:56:55.780Z,1013.08
2017-02-08T01:58:00.905Z,1013.09
2017-02-08T01:59:06.991Z,1013.1
2017-02-08T02:00:12.110Z,1013.11
2017-02-08T02:01:17.231Z,1013.1
2017-02-08T02:02:23.314Z,1013.09
2017-02-08T02:03:28.409Z,1013.04
2017-02-08T02:04:33.550Z,1013.14
2017-02-08T02:05:37.752Z,1013.11
2017-02-08T02:06:43.840Z,1013.06
2017-02-08T02:07:48.960Z,1013.09
2017-02-08T02:08:55.048Z,1013.07
2017-02-08T02:10:00.174Z,1013.06
2017-02-08T02:11:04.327Z,1013.11
2017-02-08T02:12:09.431Z,1013.07
2017-02-08T02:13:14.579Z,1013.11
2017-02-08T02:14:20.663Z,1013.1
2017-02-08T02:15:26.756Z,1013.07
2017-02-08T02:16:30.897Z,1013.1
2017-02-08T02:17:36.011Z,1013.04
2017-02-08T02:18:42.101Z,1013.08
2017-02-08T02:19:47.249Z,1013.07
2017-02-08T02:20:51.360Z,1013.1
2017-02-08T02:21:56.482Z,1013.08
2017-02-08T02:23:01.602Z,1013.06
2017-02-08T02:24:06.728Z,1013.09
2017-02-08T02:25:09.906Z,1013.12
2017-02-08T02:26:15.997Z,1013.07
2017-02-08T02:27:20.147Z,1013.09
2017-02-08T02:28:25.264Z,1013.1
2017-02-08T02:29:31.354Z,1013.04
2017-02-08T02:30:37.463Z,1013.06
2017-02-08T02:31:42.585Z,1013.07
2017-02-08T02:32:47.713Z,1013
2017-02-08T02:33:53.801Z,1013.02
2017-02-08T02:34:58.950Z,1013.03
2017-02-08T02:36:05.039Z,1013.06
2017-02-08T02:37:11.155Z,1013.06
2017-02-08T02:38:17.224Z,1013.08
2017-02-08T02:39:21.406Z,1013.09
2017-02-08T02:40:27.493Z,1013.06
2017-02-08T02:41:33.587Z,1013.07
2017-02-08T02:42:38.713Z,1013.06
2017-02-08T02:43:43.830Z,1013.13
2017-02-08T02:44:48.952Z,1013.07
2017-02-08T02:45:52.111Z,1013.05
2017-02-08T02:46:56.259Z,1013.11
2017-02-08T02:48:01.406Z,1013.09
2017-02-08T02:49:07.467Z,1013.1
2017-02-08T02:50:12.588Z,1013.08
2017-02-08T02:51:17.708Z,1013.03
2017-02-08T02:52:22.884Z,1013.09
2017-02-08T02:53:28.007Z,1013.13
2017-02-08T02:54:34.118Z,1013.18
2017-02-08T02:55:40.190Z,1013.13
2017-02-08T02:56:45.293Z,1013.08
2017-02-08T02:57:50.400Z,1013.14
2017-02-08T02:58:56.489Z,1013.18
2017-02-08T03:00:02.580Z,1013.13
2017-02-08T03:01:07.689Z,1013.15
2017-02-08T03:02:10.896Z,1013.12
2017-02-08T03:03:16.021Z,1013.14
2017-02-08T03:04:20.139Z,1013.09
2017-02-08T03:05:26.340Z,1013.14
2017-02-08T03:06:31.453Z,1013.14
2017-02-08T03:07:37.554Z,1013.19
2017-02-08T03:08:42.667Z,1013.16
2017-02-08T03:09:47.786Z,1013.12
2017-02-08T03:10:52.912Z,1013.18
2017-02-08T03:11:59.003Z,1013.13
2017-02-08T03:13:05.091Z,1013.2
2017-02-08T03:14:10.215Z,1013.17
2017-02-08T03:15:16.308Z,1013.23
2017-02-08T03:16:21.427Z,1013.21
2017-02-08T03:17:27.520Z,1013.19
2017-02-08T03:18:33.616Z,1013.29
2017-02-08T03:19:39.696Z,1013.19
2017-02-08T03:20:45.793Z,1013.19
2017-02-08T03:21:51.881Z,1013.29
2017-02-08T03:22:57.991Z,1013.22
2017-02-08T03:24:03.082Z,1013.27
2017-02-08T03:25:08.203Z,1013.25
2017-02-08T03:26:14.287Z,1013.28
2017-02-08T03:27:19.500Z,1013.25
2017-02-08T03:28:24.618Z,1013.28
2017-02-08T03:29:30.710Z,1013.34
2017-02-08T03:30:34.865Z,1013.31
2017-02-08T03:31:39.955Z,1013.33
2017-02-08T03:32:43.142Z,1013.34
2017-02-08T03:33:49.259Z,1013.41
2017-02-08T03:34:55.315Z,1013.33
2017-02-08T03:36:00.441Z,1013.38
2017-02-08T03:37:05.558Z,1013.41
2017-02-08T03:38:10.682Z,1013.39
2017-02-08T03:39:15.805Z,1013.44
2017-02-08T03:40:20.943Z,1013.45
2017-02-08T03:41:25.086Z,1013.46
2017-02-08T03:42:30.204Z,1013.46
2017-02-08T03:43:36.301Z,1013.52
2017-02-08T03:44:41.430Z,1013.5
2017-02-08T03:45:47.517Z,1013.5
2017-02-08T03:46:51.715Z,1013.48
2017-02-08T03:47:57.813Z,1013.46
2017-02-08T03:49:02.934Z,1013.46
2017-02-08T03:50:09.040Z,1013.5
2017-02-08T03:51:14.159Z,1013.51
2017-02-08T03:52:19.280Z,1013.57
2017-02-08T03:53:24.421Z,1013.56
2017-02-08T03:54:29.545Z,1013.6
2017-02-08T03:55:33.679Z,1013.59
2017-02-08T03:56:38.786Z,1013.61
2017-02-08T03:57:42.914Z,1013.62
2017-02-08T03:58:49.026Z,1013.62
2017-02-08T03:59:54.159Z,1013.6
2017-02-08T04:01:00.241Z,1013.64
2017-02-08T04:02:05.375Z,1013.68
2017-02-08T04:03:10.500Z,1013.7
2017-02-08T04:04:14.650Z,1013.71
2017-02-08T04:05:19.757Z,1013.68
2017-02-08T04:06:25.849Z,1013.72
2017-02-08T04:07:31.940Z,1013.7
2017-02-08T04:08:38.028Z,1013.74
2017-02-08T04:09:44.114Z,1013.77
2017-02-08T04:10:49.235Z,1013.77
2017-02-08T04:11:55.334Z,1013.74
2017-02-08T04:13:01.454Z,1013.76
2017-02-08T04:14:05.584Z,1013.8
2017-02-08T04:15:11.719Z,1013.78
2017-02-08T04:16:17.803Z,1013.82
2017-02-08T04:17:23.891Z,1013.9
2017-02-08T04:18:28.992Z,1013.89
2017-02-08T04:19:35.087Z,1013.91
2017-02-08T04:20:41.207Z,1013.99
2017-02-08T04:21:46.331Z,1013.87
2017-02-08T04:22:52.416Z,1013.86
2017-02-08T04:23:58.509Z,1013.92
2017-02-08T04:25:03.620Z,1013.91
2017-02-08T04:26:09.710Z,1013.9
2017-02-08T04:27:15.803Z,1013.93
2017-02-08T04:28:21.001Z,1013.93
2017-02-08T04:29:27.097Z,1013.89
2017-02-08T04:30:32.212Z,1013.94
2017-02-08T04:31:38.299Z,1013.96
2017-02-08T04:32:44.400Z,1013.94
2017-02-08T04:33:50.487Z,1013.95
2017-02-08T04:34:56.596Z,1013.96
2017-02-08T04:36:00.699Z,1013.98
2017-02-08T04:37:06.789Z,1013.99
2017-02-08T04:38:12.897Z,1013.98
2017-02-08T04:39:19.007Z,1013.99
2017-02-08T04:40:25.077Z,1014.01
2017-02-08T04:41:31.164Z,1014
2017-02-08T04:42:37.260Z,1014.03
2017-02-08T04:43:43.459Z,1014
2017-02-08T04:44:48.577Z,1014.03
2017-02-08T04:45:53.709Z,1014.04
2017-02-08T04:46:59.798Z,1013.98
2017-02-08T04:48:04.916Z,1014.03
2017-02-08T04:49:10.036Z,1014.01
2017-02-08T04:50:16.132Z,1014.04
2017-02-08T04:51:21.259Z,1014.06
2017-02-08T04:52:27.355Z,1014.1
2017-02-08T04:53:33.446Z,1014.11
2017-02-08T04:54:39.542Z,1014.1
2017-02-08T04:55:44.667Z,1014.12
2017-02-08T04:56:49.789Z,1014.1
2017-02-08T04:57:52.946Z,1014.13
2017-02-08T04:58:58.066Z,1014.14
2017-02-08T05:00:03.189Z,1014.12
2017-02-08T05:01:09.286Z,1014.09
2017-02-08T05:02:13.439Z,1014.13
2017-02-08T05:03:19.532Z,1014.16
2017-02-08T05:04:25.630Z,1014.12
2017-02-08T05:05:31.719Z,1014.14
2017-02-08T05:06:37.805Z,1014.12
2017-02-08T05:07:43.923Z,1014.18
2017-02-08T05:08:50.031Z,1014.16
2017-02-08T05:09:55.140Z,1014.09
2017-02-08T05:11:00.263Z,1014.09
2017-02-08T05:12:04.420Z,1014.16
2017-02-08T05:13:10.521Z,1014.1
2017-02-08T05:14:16.612Z,1014.14
2017-02-08T05:15:21.698Z,1014.11
2017-02-08T05:16:27.839Z,1014.16
2017-02-08T05:17:33.926Z,1014.17
2017-02-08T05:18:40.014Z,1014.19
2017-02-08T05:19:46.105Z,1014.16
2017-02-08T05:20:51.285Z,1014.13
2017-02-08T05:21:55.410Z,1014.15
2017-02-08T05:23:01.515Z,1014.18
2017-02-08T05:24:06.633Z,1014.15
2017-02-08T05:25:11.761Z,1014.18
2017-02-08T05:26:17.860Z,1014.17
2017-02-08T05:27:23.968Z,1014.21
2017-02-08T05:28:30.027Z,1014.21
2017-02-08T05:29:36.197Z,1014.22
2017-02-08T05:30:42.297Z,1014.24
2017-02-08T05:31:48.373Z,1014.26
2017-02-08T05:32:54.472Z,1014.24
2017-02-08T05:34:00.563Z,1014.25
2017-02-08T05:35:06.655Z,1014.26
2017-02-08T05:36:11.780Z,1014.28
2017-02-08T05:37:17.870Z,1014.28
2017-02-08T05:38:23.967Z,1014.3
2017-02-08T05:39:30.068Z,1014.31
2017-02-08T05:40:34.228Z,1014.33
2017-02-08T05:41:39.346Z,1014.32
2017-02-08T05:42:45.445Z,1014.33
2017-02-08T05:43:51.565Z,1014.31
2017-02-08T05:44:57.635Z,1014.29
2017-02-08T05:46:03.728Z,1014.36
2017-02-08T05:47:09.816Z,1014.31
2017-02-08T05:48:14.966Z,1014.34
2017-02-08T05:49:19.117Z,1014.35
2017-02-08T05:50:25.215Z,1014.35
2017-02-08T05:51:31.298Z,1014.34
2017-02-08T05:52:37.392Z,1014.36
2017-02-08T05:53:43.531Z,1014.38
2017-02-08T05:54:49.617Z,1014.39
2017-02-08T05:55:55.711Z,1014.41
2017-02-08T05:57:01.805Z,1014.46
2017-02-08T05:58:05.953Z,1014.45
2017-02-08T05:59:11.054Z,1014.48
2017-02-08T06:00:15.205Z,1014.48
2017-02-08T06:01:21.286Z,1014.48
2017-02-08T06:02:27.373Z,1014.44
2017-02-08T06:03:33.469Z,1014.51
2017-02-08T06:04:39.568Z,1014.54
2017-02-08T06:05:45.652Z,1014.55
2017-02-08T06:06:51.749Z,1014.59
2017-02-08T06:07:57.845Z,1014.59
2017-02-08T06:09:02.967Z,1014.6
2017-02-08T06:10:07.124Z,1014.62
2017-02-08T06:11:13.220Z,1014.68
2017-02-08T06:12:19.309Z,1014.69
2017-02-08T06:13:25.485Z,1014.6
2017-02-08T06:14:30.615Z,1014.65
2017-02-08T06:15:35.732Z,1014.68
2017-02-08T06:16:41.839Z,1014.67
2017-02-08T06:17:47.920Z,1014.69
2017-02-08T06:18:53.022Z,1014.7
2017-02-08T06:19:58.138Z,1014.64
2017-02-08T06:21:04.224Z,1014.72
2017-02-08T06:22:08.388Z,1014.69
2017-02-08T06:23:14.491Z,1014.67
2017-02-08T06:24:20.577Z,1014.71
2017-02-08T06:25:25.694Z,1014.7
2017-02-08T06:26:31.793Z,1014.7
2017-02-08T06:27:37.880Z,1014.75
2017-02-08T06:28:43.012Z,1014.74
2017-02-08T06:29:49.102Z,1014.79
2017-02-08T06:30:54.218Z,1014.76
2017-02-08T06:32:00.327Z,1014.77
2017-02-08T06:33:04.494Z,1014.77
2017-02-08T06:34:09.593Z,1014.77
2017-02-08T06:35:15.685Z,1014.83
2017-02-08T06:36:21.801Z,1014.84
2017-02-08T06:37:26.893Z,1014.82
2017-02-08T06:38:31.023Z,1014.81
2017-02-08T06:39:37.112Z,1014.85
2017-02-08T06:40:43.204Z,1014.93
2017-02-08T06:41:49.380Z,1014.89
2017-02-08T06:42:55.469Z,1014.89
2017-02-08T06:44:01.577Z,1014.86
2017-02-08T06:45:05.730Z,1014.96
2017-02-08T06:46:11.821Z,1015
2017-02-08T06:47:17.910Z,1015
2017-02-08T06:48:23.028Z,1014.99
2017-02-08T06:49:29.131Z,1015.02
2017-02-08T06:50:34.257Z,1015.06
2017-02-08T06:51:40.343Z,1015.04
2017-02-08T06:52:46.442Z,1015.02
2017-02-08T06:53:52.532Z,1015.08
2017-02-08T06:54:57.657Z,1015.09
2017-02-08T06:56:02.782Z,1015.08
2017-02-08T06:57:07.905Z,1015.1
2017-02-08T06:58:13.990Z,1015.13
2017-02-08T06:59:20.076Z,1015.09
2017-02-08T07:00:25.215Z,1015.18
2017-02-08T07:01:30.316Z,1015.24
2017-02-08T07:02:36.411Z,1015.2
2017-02-08T07:03:41.577Z,1015.17
2017-02-08T07:04:47.621Z,1015.19
2017-02-08T07:05:52.761Z,1015.25
2017-02-08T07:06:57.896Z,1015.24
2017-02-08T07:08:04.014Z,1015.26
2017-02-08T07:09:10.099Z,1015.18
2017-02-08T07:10:16.231Z,1015.21
2017-02-08T07:11:22.377Z,1015.25
2017-02-08T07:12:27.499Z,1015.24
2017-02-08T07:13:32.619Z,1015.23
2017-02-08T07:14:38.706Z,1015.23
2017-02-08T07:15:44.796Z,1015.29
2017-02-08T07:16:49.912Z,1015.33
2017-02-08T07:17:56.032Z,1015.33
2017-02-08T07:19:02.112Z,1015.32
2017-02-08T07:20:08.197Z,1015.39
2017-02-08T07:21:14.300Z,1015.38
2017-02-08T07:22:20.403Z,1015.41
2017-02-08T07:23:26.490Z,1015.41
2017-02-08T07:24:31.618Z,1015.42
2017-02-08T07:25:36.746Z,1015.42
2017-02-08T07:26:41.867Z,1015.43
2017-02-08T07:27:47.973Z,1015.5
2017-02-08T07:28:52.124Z,1015.46
2017-02-08T07:29:58.216Z,1015.5
2017-02-08T07:31:04.305Z,1015.49
2017-02-08T07:32:10.403Z,1015.55
2017-02-08T07:33:16.501Z,1015.55
2017-02-08T07:34:22.593Z,1015.6
2017-02-08T07:35:28.680Z,1015.57
2017-02-08T07:36:34.769Z,1015.6
2017-02-08T07:37:39.923Z,1015.63
2017-02-08T07:38:45.993Z,1015.62
2017-02-08T07:39:52.076Z,1015.68
2017-02-08T07:40:58.167Z,1015.66
2017-02-08T07:42:02.333Z,1015.63
2017-02-08T07:43:08.427Z,1015.69
2017-02-08T07:44:14.513Z,1015.7
2017-02-08T07:45:19.630Z,1015.69
2017-02-08T07:46:25.724Z,1015.7
2017-02-08T07:47:30.837Z,1015.69
2017-02-08T07:48:35.962Z,1015.64
2017-02-08T07:49:41.162Z,1015.73
2017-02-08T07:50:47.246Z,1015.73
2017-02-08T07:51:53.339Z,1015.72
2017-02-08T07:52:58.435Z,1015.73
2017-02-08T07:54:03.563Z,1015.76
2017-02-08T07:55:07.724Z,1015.76
2017-02-08T07:56:13.805Z,1015.8
2017-02-08T07:57:19.904Z,1015.81
2017-02-08T07:58:24.077Z,1015.8
2017-02-08T07:59:30.149Z,1015.8
2017-02-08T08:00:35.273Z,1015.84
2017-02-08T08:01:41.367Z,1015.91
2017-02-08T08:02:47.451Z,1015.92
2017-02-08T08:03:52.580Z,1015.92
2017-02-08T08:04:58.670Z,1015.95
2017-02-08T08:06:04.760Z,1016.01
2017-02-08T08:07:09.855Z,1015.97
2017-02-08T08:08:15.943Z,1016
2017-02-08T08:09:22.028Z,1016.02
2017-02-08T08:10:28.118Z,1016
2017-02-08T08:11:33.301Z,1016
2017-02-08T08:12:39.394Z,1016.02
2017-02-08T08:13:45.491Z,1016.06
2017-02-08T08:14:51.584Z,1016.08
2017-02-08T08:15:56.676Z,1016.08
2017-02-08T08:17:02.940Z,1016.14
2017-02-08T08:18:09.034Z,1016.15
2017-02-08T08:19:14.174Z,1016.18
2017-02-08T08:20:20.278Z,1016.16
2017-02-08T08:21:24.425Z,1016.23
2017-02-08T08:22:30.524Z,1016.23
2017-02-08T08:23:36.620Z,1016.2
2017-02-08T08:24:42.711Z,1016.23
2017-02-08T08:25:48.798Z,1016.21
2017-02-08T08:26:54.960Z,1016.27
2017-02-08T08:28:01.106Z,1016.23
2017-02-08T08:29:07.156Z,1016.22
2017-02-08T08:30:13.244Z,1016.23
2017-02-08T08:31:19.427Z,1016.24
2017-02-08T08:32:24.559Z,1016.25
2017-02-08T08:33:30.651Z,1016.23
2017-02-08T08:34:36.743Z,1016.32
2017-02-08T08:35:42.899Z,1016.25
2017-02-08T08:36:48.995Z,1016.31
2017-02-08T08:37:55.080Z,1016.38
2017-02-08T08:39:01.169Z,1016.33
2017-02-08T08:40:06.290Z,1016.36
2017-02-08T08:41:12.375Z,1016.38
2017-02-08T08:42:17.499Z,1016.39
2017-02-08T08:43:22.623Z,1016.44
2017-02-08T08:44:28.782Z,1016.43
2017-02-08T08:45:34.884Z,1016.43
2017-02-08T08:46:41.021Z,1016.38
2017-02-08T08:47:46.120Z,1016.43
2017-02-08T08:48:51.241Z,1016.43
2017-02-08T08:49:56.366Z,1016.45
2017-02-08T08:51:02.463Z,1016.44
2017-02-08T08:52:08.550Z,1016.4
2017-02-08T08:53:13.670Z,1016.43
2017-02-08T08:54:18.805Z,1016.43
2017-02-08T08:55:24.887Z,1016.42
2017-02-08T08:56:30.978Z,1016.46
2017-02-08T08:57:36.103Z,1016.45
2017-02-08T08:58:42.194Z,1016.47
2017-02-08T08:59:48.291Z,1016.43
2017-02-08T09:00:54.383Z,1016.43
2017-02-08T09:02:00.475Z,1016.46
2017-02-08T09:03:06.561Z,1016.42
2017-02-08T09:04:10.712Z,1016.47
2017-02-08T09:05:16.800Z,1016.46
2017-02-08T09:06:21.917Z,1016.5
2017-02-08T09:07:27.011Z,1016.5
2017-02-08T09:08:32.135Z,1016.51
2017-02-08T09:09:38.244Z,1016.55
2017-02-08T09:10:44.334Z,1016.56
2017-02-08T09:11:48.469Z,1016.59
2017-02-08T09:12:53.564Z,1016.6
2017-02-08T09:13:59.663Z,1016.62
2017-02-08T09:15:05.764Z,1016.61
2017-02-08T09:16:11.919Z,1016.62
2017-02-08T09:17:18.016Z,1016.62
2017-02-08T09:18:23.181Z,1016.6
2017-02-08T09:19:28.278Z,1016.63
2017-02-08T09:20:32.432Z,1016.62
2017-02-08T09:21:38.519Z,1016.64
2017-02-08T09:22:44.620Z,1016.64
2017-02-08T09:23:49.752Z,1016.69
2017-02-08T09:24:55.894Z,1016.68
2017-02-08T09:26:00.013Z,1016.7
2017-02-08T09:27:06.164Z,1016.69
2017-02-08T09:28:12.258Z,1016.71
2017-02-08T09:29:18.344Z,1016.71
2017-02-08T09:30:24.436Z,1016.7
2017-02-08T09:31:30.520Z,1016.71
2017-02-08T09:32:36.615Z,1016.73
2017-02-08T09:33:42.712Z,1016.73
2017-02-08T09:34:47.837Z,1016.78
2017-02-08T09:35:53.931Z,1016.77
2017-02-08T09:37:00.049Z,1016.79
2017-02-08T09:38:06.114Z,1016.79
2017-02-08T09:39:12.205Z,1016.9
2017-02-08T09:40:18.305Z,1016.82
2017-02-08T09:41:24.458Z,1016.89
2017-02-08T09:42:30.546Z,1016.87
2017-02-08T09:43:36.648Z,1016.88
2017-02-08T09:44:42.741Z,1016.9
2017-02-08T09:45:48.834Z,1016.94
2017-02-08T09:46:54.924Z,1016.95
2017-02-08T09:48:00.084Z,1016.93
2017-02-08T09:49:04.199Z,1016.98
2017-02-08T09:50:10.297Z,1016.92
2017-02-08T09:51:15.417Z,1016.91
2017-02-08T09:52:21.543Z,1016.97
2017-02-08T09:53:27.624Z,1017
2017-02-08T09:54:32.754Z,1016.99
2017-02-08T09:55:37.851Z,1016.95
2017-02-08T09:56:42.972Z,1016.99
2017-02-08T09:57:48.089Z,1017.02
2017-02-08T09:58:54.185Z,1017
2017-02-08T09:59:59.366Z,1017.03
2017-02-08T10:01:05.461Z,1017
2017-02-08T10:02:11.569Z,1017.02
2017-02-08T10:03:16.675Z,1017.09
2017-02-08T10:04:21.796Z,1017.02
2017-02-08T10:05:27.886Z,1017.07
2017-02-08T10:06:33.976Z,1017.1
2017-02-08T10:07:38.143Z,1017.13
2017-02-08T10:08:43.285Z,1017.1
2017-02-08T10:09:49.359Z,1017.14
2017-02-08T10:10:55.443Z,1017.1
2017-02-08T10:12:01.529Z,1017.13
2017-02-08T10:13:07.611Z,1017.15
2017-02-08T10:14:12.739Z,1017.19
2017-02-08T10:15:18.843Z,1017.17
2017-02-08T10:16:24.939Z,1017.17
2017-02-08T10:17:31.033Z,1017.22
2017-02-08T10:18:36.125Z,1017.25
2017-02-08T10:19:42.244Z,1017.23
2017-02-08T10:20:48.335Z,1017.25
2017-02-08T10:21:54.428Z,1017.26
2017-02-08T10:23:00.522Z,1017.26
2017-02-08T10:24:05.710Z,1017.27
2017-02-08T10:25:11.804Z,1017.23
2017-02-08T10:26:17.907Z,1017.22
2017-02-08T10:27:23.989Z,1017.16
2017-02-08T10:28:28.148Z,1017.2
2017-02-08T10:29:34.238Z,1017.18
2017-02-08T10:30:39.371Z,1017.17
2017-02-08T10:31:45.460Z,1017.17
2017-02-08T10:32:51.550Z,1017.15
2017-02-08T10:33:57.639Z,1017.16
2017-02-08T10:35:03.735Z,1017.17
2017-02-08T10:36:08.826Z,1017.17
2017-02-08T10:37:14.932Z,1017.24
2017-02-08T10:38:21.013Z,1017.22
2017-02-08T10:39:26.151Z,1017.26
2017-02-08T10:40:32.244Z,1017.2
2017-02-08T10:41:38.379Z,1017.19
2017-02-08T10:42:43.475Z,1017.13
2017-02-08T10:43:47.627Z,1017.15
2017-02-08T10:44:53.728Z,1017.19
2017-02-08T10:45:58.865Z,1017.19
2017-02-08T10:47:04.969Z,1017.17
2017-02-08T10:48:10.070Z,1017.18
2017-02-08T10:49:16.157Z,1017.16
2017-02-08T10:50:21.315Z,1017.17
2017-02-08T10:51:27.422Z,1017.16
2017-02-08T10:52:33.515Z,1017.2
2017-02-08T10:53:39.609Z,1017.22
2017-02-08T10:54:45.698Z,1017.18
2017-02-08T10:55:51.782Z,1017.17
2017-02-08T10:56:57.870Z,1017.21
2017-02-08T10:58:03.006Z,1017.16
2017-02-08T10:59:07.162Z,1017.21
2017-02-08T11:00:10.356Z,1017.2
2017-02-08T11:01:16.447Z,1017.26
2017-02-08T11:02:22.545Z,1017.28
2017-02-08T11:03:28.637Z,1017.25
2017-02-08T11:04:34.739Z,1017.28
2017-02-08T11:05:40.823Z,1017.28
2017-02-08T11:06:46.913Z,1017.29
2017-02-08T11:07:52.089Z,1017.29
2017-02-08T11:08:57.211Z,1017.31
2017-02-08T11:10:02.331Z,1017.28
2017-02-08T11:11:08.428Z,1017.27
2017-02-08T11:12:14.565Z,1017.36
2017-02-08T11:13:19.651Z,1017.35
2017-02-08T11:14:25.746Z,1017.36
2017-02-08T11:15:31.846Z,1017.4
2017-02-08T11:16:37.935Z,1017.36
2017-02-08T11:17:42.111Z,1017.33
2017-02-08T11:18:48.198Z,1017.38
2017-02-08T11:19:54.300Z,1017.43
2017-02-08T11:20:59.400Z,1017.49
2017-02-08T11:22:05.507Z,1017.45
2017-02-08T11:23:10.635Z,1017.46
2017-02-08T11:24:15.760Z,1017.46
2017-02-08T11:25:20.872Z,1017.44
2017-02-08T11:26:26.973Z,1017.46
2017-02-08T11:27:33.063Z,1017.51
2017-02-08T11:28:39.148Z,1017.49
2017-02-08T11:29:45.252Z,1017.45
2017-02-08T11:30:51.334Z,1017.44
2017-02-08T11:31:57.481Z,1017.46
2017-02-08T11:33:02.554Z,1017.47
2017-02-08T11:34:08.655Z,1017.51
2017-02-08T11:35:13.762Z,1017.51
2017-02-08T11:36:19.874Z,1017.48
2017-02-08T11:37:25.955Z,1017.51
2017-02-08T11:38:30.097Z,1017.44
2017-02-08T11:39:35.220Z,1017.45
2017-02-08T11:40:38.408Z,1017.43
2017-02-08T11:41:44.504Z,1017.43
2017-02-08T11:42:50.632Z,1017.44
2017-02-08T11:43:54.773Z,1017.45
2017-02-08T11:45:00.868Z,1017.47
2017-02-08T11:46:06.956Z,1017.44
2017-02-08T11:47:12.112Z,1017.47
2017-02-08T11:48:17.210Z,1017.51
2017-02-08T11:49:22.340Z,1017.5
2017-02-08T11:50:28.430Z,1017.6
2017-02-08T11:51:32.597Z,1017.57
2017-02-08T11:52:38.687Z,1017.54
2017-02-08T11:53:43.824Z,1017.49
2017-02-08T11:54:48.945Z,1017.52
2017-02-08T11:55:55.034Z,1017.48
2017-02-08T11:57:00.218Z,1017.46
2017-02-08T11:58:06.245Z,1017.53
2017-02-08T11:59:10.370Z,1017.52
2017-02-08T12:00:16.533Z,1017.48
2017-02-08T12:01:21.670Z,1017.51
2017-02-08T12:02:27.772Z,1017.52
2017-02-08T12:03:33.861Z,1017.59
2017-02-08T12:04:39.952Z,1017.54
2017-02-08T12:05:46.062Z,1017.55
2017-02-08T12:06:51.185Z,1017.63
2017-02-08T12:07:57.286Z,1017.58
2017-02-08T12:09:01.444Z,1017.53
2017-02-08T12:10:06.576Z,1017.53
2017-02-08T12:11:11.702Z,1017.57
2017-02-08T12:12:17.793Z,1017.56
2017-02-08T12:13:23.885Z,1017.59
2017-02-08T12:14:29.978Z,1017.59
2017-02-08T12:15:35.109Z,1017.62
2017-02-08T12:16:41.216Z,1017.56
2017-02-08T12:17:47.306Z,1017.61
2017-02-08T12:18:51.460Z,1017.61
2017-02-08T12:19:57.552Z,1017.6
2017-02-08T12:21:02.667Z,1017.65
2017-02-08T12:22:08.765Z,1017.64
2017-02-08T12:23:14.864Z,1017.64
2017-02-08T12:24:20.968Z,1017.61
2017-02-08T12:25:25.123Z,1017.62
2017-02-08T12:26:31.217Z,1017.65
2017-02-08T12:27:36.351Z,1017.64
2017-02-08T12:28:40.520Z,1017.63
2017-02-08T12:29:45.727Z,1017.62
2017-02-08T12:30:49.858Z,1017.66
2017-02-08T12:31:55.952Z,1017.59
2017-02-08T12:33:01.064Z,1017.66
2017-02-08T12:34:07.258Z,1017.6
2017-02-08T12:35:12.405Z,1017.6
2017-02-08T12:36:18.534Z,1017.6
2017-02-08T12:37:24.654Z,1017.62
2017-02-08T12:38:29.779Z,1017.59
2017-02-08T12:39:35.874Z,1017.65
2017-02-08T12:40:41.959Z,1017.65
2017-02-08T12:41:47.075Z,1017.68
2017-02-08T12:42:52.201Z,1017.71
2017-02-08T12:43:58.302Z,1017.62
2017-02-08T12:45:04.391Z,1017.63
2017-02-08T12:46:09.517Z,1017.56
2017-02-08T12:47:14.640Z,1017.6
2017-02-08T12:48:19.767Z,1017.59
2017-02-08T12:49:24.888Z,1017.61
2017-02-08T12:50:30.977Z,1017.62
2017-02-08T12:51:37.084Z,1017.61
2017-02-08T12:52:43.167Z,1017.62
2017-02-08T12:53:48.280Z,1017.69
2017-02-08T12:54:54.373Z,1017.55
2017-02-08T12:55:59.481Z,1017.6
2017-02-08T12:57:04.589Z,1017.55
2017-02-08T12:58:10.724Z,1017.65
2017-02-08T12:59:16.813Z,1017.63
2017-02-08T13:00:22.918Z,1017.56
2017-02-08T13:01:29.009Z,1017.6
2017-02-08T13:02:35.110Z,1017.58
2017-02-08T13:03:41.207Z,1017.6
2017-02-08T13:04:46.339Z,1017.53
2017-02-08T13:05:51.431Z,1017.49
2017-02-08T13:06:57.524Z,1017.53
2017-02-08T13:08:03.620Z,1017.52
2017-02-08T13:09:09.720Z,1017.52
2017-02-08T13:10:14.882Z,1017.53
2017-02-08T13:11:19.998Z,1017.53
2017-02-08T13:12:25.095Z,1017.54
2017-02-08T13:13:31.179Z,1017.59
2017-02-08T13:14:37.276Z,1017.54
2017-02-08T13:15:43.373Z,1017.59
2017-02-08T13:16:48.503Z,1017.6